sensor_id;sensor_type;location;lat;lon;timestamp;temperature;humidity
5711;DHT22;61291;52.524;13.422;2023-08-06T00:01:50;17.50;99.90
5711;DHT22;61291;52.524;13.422;2023-08-06T00:04:16;17.50;99.90
5711;DHT22;61291;52.524;13.422;2023-08-06T00:06:42;17.50;99.90
5711;DHT22;61291;52.524;13.422;2023-08-06T00:09:08;17.50;99.90
5711;DHT22;61291;52.524;13.422;2023-08-06T00:11:34;17.50;99.90
5711;DHT22;61291;52.524;13.422;2023-08-06T00:13:59;17.50;99.90
5711;DHT22;61291;52.524;13.422;2023-08-06T00:16:24;17.50;99.90
5711;DHT22;61291;52.524;13.422;2023-08-06T00:18:50;17.50;99.90
5711;DHT22;61291;52.524;13.422;2023-08-06T00:21:15;17.50;99.90
5711;DHT22;61291;52.524;13.422;2023-08-06T00:23:41;17.50;99.90
5711;DHT22;61291;52.524;13.422;2023-08-06T00:26:07;17.50;99.90
5711;DHT22;61291;52.524;13.422;2023-08-06T00:28:32;17.60;99.90
5711;DHT22;61291;52.524;13.422;2023-08-06T00:30:58;17.60;99.90
5711;DHT22;61291;52.524;13.422;2023-08-06T00:33:24;17.60;99.90
5711;DHT22;61291;52.524;13.422;2023-08-06T00:35:49;17.60;99.90
5711;DHT22;61291;52.524;13.422;2023-08-06T00:38:15;17.60;99.90
5711;DHT22;61291;52.524;13.422;2023-08-06T00:40:41;17.60;99.90
5711;DHT22;61291;52.524;13.422;2023-08-06T00:43:06;17.60;99.90
5711;DHT22;61291;52.524;13.422;2023-08-06T00:45:35;17.50;99.90
5711;DHT22;61291;52.524;13.422;2023-08-06T00:48:02;17.60;99.90
5711;DHT22;61291;52.524;13.422;2023-08-06T00:50:29;17.50;99.90
5711;DHT22;61291;52.524;13.422;2023-08-06T00:52:54;17.50;99.90
5711;DHT22;61291;52.524;13.422;2023-08-06T00:55:20;17.50;99.90
5711;DHT22;61291;52.524;13.422;2023-08-06T00:57:46;17.50;99.90
5711;DHT22;61291;52.524;13.422;2023-08-06T01:00:12;17.40;99.90
5711;DHT22;61291;52.524;13.422;2023-08-06T01:02:37;17.40;99.90
5711;DHT22;61291;52.524;13.422;2023-08-06T01:05:03;17.40;99.90
5711;DHT22;61291;52.524;13.422;2023-08-06T01:13:16;17.40;99.90
5711;DHT22;61291;52.524;13.422;2023-08-06T01:15:46;17.40;99.90
5711;DHT22;61291;52.524;13.422;2023-08-06T01:18:12;17.50;99.90
5711;DHT22;61291;52.524;13.422;2023-08-06T01:20:38;17.50;99.90
5711;DHT22;61291;52.524;13.422;2023-08-06T01:23:03;17.40;99.90
5711;DHT22;61291;52.524;13.422;2023-08-06T01:25:33;17.40;99.90
5711;DHT22;61291;52.524;13.422;2023-08-06T01:28:06;17.40;99.90
5711;DHT22;61291;52.524;13.422;2023-08-06T01:30:33;17.40;99.90
5711;DHT22;61291;52.524;13.422;2023-08-06T01:33:04;17.40;99.90
5711;DHT22;61291;52.524;13.422;2023-08-06T01:35:32;17.40;99.90
5711;DHT22;61291;52.524;13.422;2023-08-06T01:37:58;17.40;99.90
5711;DHT22;61291;52.524;13.422;2023-08-06T01:40:24;17.40;99.90
5711;DHT22;61291;52.524;13.422;2023-08-06T01:42:51;17.40;99.90
5711;DHT22;61291;52.524;13.422;2023-08-06T01:45:16;17.40;99.90
5711;DHT22;61291;52.524;13.422;2023-08-06T01:47:42;17.30;99.90
5711;DHT22;61291;52.524;13.422;2023-08-06T01:50:08;17.30;99.90
5711;DHT22;61291;52.524;13.422;2023-08-06T01:52:33;17.30;99.90
5711;DHT22;61291;52.524;13.422;2023-08-06T01:54:59;17.20;99.90
5711;DHT22;61291;52.524;13.422;2023-08-06T01:57:24;17.20;99.90
5711;DHT22;61291;52.524;13.422;2023-08-06T01:59:50;17.10;99.90
5711;DHT22;61291;52.524;13.422;2023-08-06T02:02:15;17.10;99.90
5711;DHT22;61291;52.524;13.422;2023-08-06T02:04:41;17.10;99.90
5711;DHT22;61291;52.524;13.422;2023-08-06T02:07:06;17.00;99.90
5711;DHT22;61291;52.524;13.422;2023-08-06T02:09:32;17.00;99.90
5711;DHT22;61291;52.524;13.422;2023-08-06T02:11:57;17.00;99.90
5711;DHT22;61291;52.524;13.422;2023-08-06T02:14:23;16.90;99.90
5711;DHT22;61291;52.524;13.422;2023-08-06T02:16:48;16.90;99.90
5711;DHT22;61291;52.524;13.422;2023-08-06T02:19:14;16.90;99.90
5711;DHT22;61291;52.524;13.422;2023-08-06T02:21:40;16.80;99.90
5711;DHT22;61291;52.524;13.422;2023-08-06T02:24:05;16.80;99.90
5711;DHT22;61291;52.524;13.422;2023-08-06T02:26:31;16.80;99.90
5711;DHT22;61291;52.524;13.422;2023-08-06T02:28:56;16.80;99.90
5711;DHT22;61291;52.524;13.422;2023-08-06T02:31:22;16.80;99.90
5711;DHT22;61291;52.524;13.422;2023-08-06T02:33:47;16.80;99.90
5711;DHT22;61291;52.524;13.422;2023-08-06T02:36:13;16.80;99.90
5711;DHT22;61291;52.524;13.422;2023-08-06T02:38:38;16.80;99.90
5711;DHT22;61291;52.524;13.422;2023-08-06T02:41:04;16.70;99.90
5711;DHT22;61291;52.524;13.422;2023-08-06T02:43:30;16.80;99.90
5711;DHT22;61291;52.524;13.422;2023-08-06T02:45:59;16.80;99.90
5711;DHT22;61291;52.524;13.422;2023-08-06T02:48:25;16.80;99.90
5711;DHT22;61291;52.524;13.422;2023-08-06T02:50:51;16.90;99.90
5711;DHT22;61291;52.524;13.422;2023-08-06T02:53:16;16.90;99.90
5711;DHT22;61291;52.524;13.422;2023-08-06T02:55:46;16.90;99.90
5711;DHT22;61291;52.524;13.422;2023-08-06T02:58:13;16.90;99.90
5711;DHT22;61291;52.524;13.422;2023-08-06T03:00:39;16.90;99.90
5711;DHT22;61291;52.524;13.422;2023-08-06T03:03:04;16.80;99.90
5711;DHT22;61291;52.524;13.422;2023-08-06T03:05:30;16.80;99.90
5711;DHT22;61291;52.524;13.422;2023-08-06T03:07:55;16.80;99.90
5711;DHT22;61291;52.524;13.422;2023-08-06T03:10:21;16.70;99.90
5711;DHT22;61291;52.524;13.422;2023-08-06T03:12:46;16.70;99.90
5711;DHT22;61291;52.524;13.422;2023-08-06T03:15:12;16.60;99.90
5711;DHT22;61291;52.524;13.422;2023-08-06T03:17:37;16.60;99.90
5711;DHT22;61291;52.524;13.422;2023-08-06T03:20:03;16.60;99.90
5711;DHT22;61291;52.524;13.422;2023-08-06T03:22:28;16.60;99.90
5711;DHT22;61291;52.524;13.422;2023-08-06T03:24:54;16.60;99.90
5711;DHT22;61291;52.524;13.422;2023-08-06T03:27:19;16.60;99.90
5711;DHT22;61291;52.524;13.422;2023-08-06T03:29:45;16.50;99.90
5711;DHT22;61291;52.524;13.422;2023-08-06T03:32:10;16.60;99.90
5711;DHT22;61291;52.524;13.422;2023-08-06T03:34:36;16.50;99.90
5711;DHT22;61291;52.524;13.422;2023-08-06T03:37:01;16.50;99.90
5711;DHT22;61291;52.524;13.422;2023-08-06T03:39:27;16.40;99.90
5711;DHT22;61291;52.524;13.422;2023-08-06T03:41:52;16.40;99.90
5711;DHT22;61291;52.524;13.422;2023-08-06T03:44:17;16.50;99.90
5711;DHT22;61291;52.524;13.422;2023-08-06T03:46:43;16.40;99.90
5711;DHT22;61291;52.524;13.422;2023-08-06T03:49:08;16.40;99.90
5711;DHT22;61291;52.524;13.422;2023-08-06T03:51:34;16.40;99.90
5711;DHT22;61291;52.524;13.422;2023-08-06T03:53:59;16.40;99.90
5711;DHT22;61291;52.524;13.422;2023-08-06T03:56:25;16.40;99.90
5711;DHT22;61291;52.524;13.422;2023-08-06T03:58:50;16.30;99.90
5711;DHT22;61291;52.524;13.422;2023-08-06T04:01:16;16.40;99.90
5711;DHT22;61291;52.524;13.422;2023-08-06T04:03:41;16.40;99.90
5711;DHT22;61291;52.524;13.422;2023-08-06T04:06:07;16.40;99.90
5711;DHT22;61291;52.524;13.422;2023-08-06T04:08:32;16.40;99.90
5711;DHT22;61291;52.524;13.422;2023-08-06T04:10:58;16.40;99.90
5711;DHT22;61291;52.524;13.422;2023-08-06T04:13:24;16.50;99.90
5711;DHT22;61291;52.524;13.422;2023-08-06T04:15:49;16.50;99.90
5711;DHT22;61291;52.524;13.422;2023-08-06T04:18:15;16.50;99.90
5711;DHT22;61291;52.524;13.422;2023-08-06T04:20:47;16.50;99.90
5711;DHT22;61291;52.524;13.422;2023-08-06T04:23:14;16.50;99.90
5711;DHT22;61291;52.524;13.422;2023-08-06T04:25:40;16.60;99.90
5711;DHT22;61291;52.524;13.422;2023-08-06T04:28:06;16.60;99.90
5711;DHT22;61291;52.524;13.422;2023-08-06T04:30:31;16.60;99.90
5711;DHT22;61291;52.524;13.422;2023-08-06T04:32:57;16.60;99.90
5711;DHT22;61291;52.524;13.422;2023-08-06T04:35:23;16.60;99.90
5711;DHT22;61291;52.524;13.422;2023-08-06T04:37:49;16.60;99.90
5711;DHT22;61291;52.524;13.422;2023-08-06T04:40:14;16.70;99.90
5711;DHT22;61291;52.524;13.422;2023-08-06T04:42:39;16.60;99.90
5711;DHT22;61291;52.524;13.422;2023-08-06T04:45:05;16.60;99.90
5711;DHT22;61291;52.524;13.422;2023-08-06T04:47:31;16.70;99.90
5711;DHT22;61291;52.524;13.422;2023-08-06T04:49:57;16.70;99.90
5711;DHT22;61291;52.524;13.422;2023-08-06T04:52:22;16.80;99.90
5711;DHT22;61291;52.524;13.422;2023-08-06T04:54:47;16.90;99.90
5711;DHT22;61291;52.524;13.422;2023-08-06T04:57:13;16.90;99.90
5711;DHT22;61291;52.524;13.422;2023-08-06T04:59:39;17.00;99.90
5711;DHT22;61291;52.524;13.422;2023-08-06T05:02:04;17.00;99.90
5711;DHT22;61291;52.524;13.422;2023-08-06T05:04:30;17.00;99.90
5711;DHT22;61291;52.524;13.422;2023-08-06T05:06:55;17.10;99.90
5711;DHT22;61291;52.524;13.422;2023-08-06T05:09:21;17.10;99.90
5711;DHT22;61291;52.524;13.422;2023-08-06T05:11:47;17.20;99.90
5711;DHT22;61291;52.524;13.422;2023-08-06T05:14:13;17.30;99.90
5711;DHT22;61291;52.524;13.422;2023-08-06T05:16:39;17.30;99.90
5711;DHT22;61291;52.524;13.422;2023-08-06T05:19:04;17.40;99.90
5711;DHT22;61291;52.524;13.422;2023-08-06T05:21:30;17.40;99.90
5711;DHT22;61291;52.524;13.422;2023-08-06T05:23:55;17.40;99.90
5711;DHT22;61291;52.524;13.422;2023-08-06T05:26:21;17.40;99.90
5711;DHT22;61291;52.524;13.422;2023-08-06T05:28:46;17.40;99.90
5711;DHT22;61291;52.524;13.422;2023-08-06T05:31:12;17.40;99.90
5711;DHT22;61291;52.524;13.422;2023-08-06T05:33:38;17.50;99.90
5711;DHT22;61291;52.524;13.422;2023-08-06T05:36:04;17.60;99.90
5711;DHT22;61291;52.524;13.422;2023-08-06T05:38:30;17.70;99.90
5711;DHT22;61291;52.524;13.422;2023-08-06T05:40:55;17.80;99.90
5711;DHT22;61291;52.524;13.422;2023-08-06T05:43:21;17.90;99.90
5711;DHT22;61291;52.524;13.422;2023-08-06T05:45:49;18.00;99.90
5711;DHT22;61291;52.524;13.422;2023-08-06T05:48:15;18.10;99.90
5711;DHT22;61291;52.524;13.422;2023-08-06T05:50:40;18.10;99.90
5711;DHT22;61291;52.524;13.422;2023-08-06T05:53:06;18.20;99.90
5711;DHT22;61291;52.524;13.422;2023-08-06T05:55:31;18.30;99.90
5711;DHT22;61291;52.524;13.422;2023-08-06T05:57:58;18.40;99.90
5711;DHT22;61291;52.524;13.422;2023-08-06T06:00:23;18.40;99.90
5711;DHT22;61291;52.524;13.422;2023-08-06T06:02:49;18.50;99.90
5711;DHT22;61291;52.524;13.422;2023-08-06T06:05:14;18.60;99.90
5711;DHT22;61291;52.524;13.422;2023-08-06T06:07:40;18.60;99.90
5711;DHT22;61291;52.524;13.422;2023-08-06T06:10:06;18.60;99.90
5711;DHT22;61291;52.524;13.422;2023-08-06T06:12:31;18.60;99.90
5711;DHT22;61291;52.524;13.422;2023-08-06T06:14:57;18.70;99.90
5711;DHT22;61291;52.524;13.422;2023-08-06T06:17:22;18.80;99.90
5711;DHT22;61291;52.524;13.422;2023-08-06T06:19:48;18.80;99.90
5711;DHT22;61291;52.524;13.422;2023-08-06T06:22:14;18.80;99.90
5711;DHT22;61291;52.524;13.422;2023-08-06T06:24:39;18.80;99.90
5711;DHT22;61291;52.524;13.422;2023-08-06T06:27:05;18.90;99.90
5711;DHT22;61291;52.524;13.422;2023-08-06T06:29:30;18.90;99.90
5711;DHT22;61291;52.524;13.422;2023-08-06T06:31:56;18.90;99.90
5711;DHT22;61291;52.524;13.422;2023-08-06T06:34:21;18.90;99.90
5711;DHT22;61291;52.524;13.422;2023-08-06T06:36:47;19.00;99.90
5711;DHT22;61291;52.524;13.422;2023-08-06T06:39:13;19.10;99.90
5711;DHT22;61291;52.524;13.422;2023-08-06T06:41:38;19.10;99.90
5711;DHT22;61291;52.524;13.422;2023-08-06T06:44:05;19.20;99.90
5711;DHT22;61291;52.524;13.422;2023-08-06T06:46:31;19.20;99.90
5711;DHT22;61291;52.524;13.422;2023-08-06T06:48:56;19.30;99.90
5711;DHT22;61291;52.524;13.422;2023-08-06T06:51:22;19.30;99.90
5711;DHT22;61291;52.524;13.422;2023-08-06T06:53:47;19.30;99.90
5711;DHT22;61291;52.524;13.422;2023-08-06T06:56:13;19.40;99.90
5711;DHT22;61291;52.524;13.422;2023-08-06T06:58:38;19.50;99.90
5711;DHT22;61291;52.524;13.422;2023-08-06T07:01:06;19.60;99.90
5711;DHT22;61291;52.524;13.422;2023-08-06T07:03:31;19.80;99.90
5711;DHT22;61291;52.524;13.422;2023-08-06T07:05:58;19.90;99.90
5711;DHT22;61291;52.524;13.422;2023-08-06T07:08:26;20.00;99.90
5711;DHT22;61291;52.524;13.422;2023-08-06T07:11:03;20.10;99.90
5711;DHT22;61291;52.524;13.422;2023-08-06T07:13:29;20.20;99.90
5711;DHT22;61291;52.524;13.422;2023-08-06T07:15:55;20.30;99.90
5711;DHT22;61291;52.524;13.422;2023-08-06T07:18:21;20.40;99.90
5711;DHT22;61291;52.524;13.422;2023-08-06T07:20:50;20.50;99.90
5711;DHT22;61291;52.524;13.422;2023-08-06T07:23:16;20.60;99.90
5711;DHT22;61291;52.524;13.422;2023-08-06T07:25:41;20.60;99.90
5711;DHT22;61291;52.524;13.422;2023-08-06T07:28:08;20.70;99.90
5711;DHT22;61291;52.524;13.422;2023-08-06T07:30:33;20.70;99.90
5711;DHT22;61291;52.524;13.422;2023-08-06T07:32:58;20.70;99.90
5711;DHT22;61291;52.524;13.422;2023-08-06T07:35:24;20.60;99.90
5711;DHT22;61291;52.524;13.422;2023-08-06T07:37:49;20.60;99.90
5711;DHT22;61291;52.524;13.422;2023-08-06T07:40:15;20.50;99.90
5711;DHT22;61291;52.524;13.422;2023-08-06T07:42:41;20.40;99.90
5711;DHT22;61291;52.524;13.422;2023-08-06T07:45:07;20.30;99.90
5711;DHT22;61291;52.524;13.422;2023-08-06T07:47:33;20.20;99.90
5711;DHT22;61291;52.524;13.422;2023-08-06T07:49:58;20.20;99.90
5711;DHT22;61291;52.524;13.422;2023-08-06T07:52:24;20.30;99.90
5711;DHT22;61291;52.524;13.422;2023-08-06T07:54:50;20.20;99.90
5711;DHT22;61291;52.524;13.422;2023-08-06T07:57:15;20.10;99.90
5711;DHT22;61291;52.524;13.422;2023-08-06T07:59:42;20.00;99.90
5711;DHT22;61291;52.524;13.422;2023-08-06T08:02:07;19.80;99.90
5711;DHT22;61291;52.524;13.422;2023-08-06T08:04:33;19.80;99.90
5711;DHT22;61291;52.524;13.422;2023-08-06T08:06:58;19.70;99.90
5711;DHT22;61291;52.524;13.422;2023-08-06T08:09:24;19.70;99.90
5711;DHT22;61291;52.524;13.422;2023-08-06T08:11:49;19.60;99.90
5711;DHT22;61291;52.524;13.422;2023-08-06T08:14:15;19.60;99.90
5711;DHT22;61291;52.524;13.422;2023-08-06T08:16:41;19.70;99.90
5711;DHT22;61291;52.524;13.422;2023-08-06T08:19:07;19.60;99.90
5711;DHT22;61291;52.524;13.422;2023-08-06T08:21:32;19.60;99.90
5711;DHT22;61291;52.524;13.422;2023-08-06T08:24:00;19.50;99.90
5711;DHT22;61291;52.524;13.422;2023-08-06T08:26:25;19.60;99.90
5711;DHT22;61291;52.524;13.422;2023-08-06T08:28:56;19.70;99.90
5711;DHT22;61291;52.524;13.422;2023-08-06T08:31:22;19.80;99.90
5711;DHT22;61291;52.524;13.422;2023-08-06T08:33:48;20.00;99.90
5711;DHT22;61291;52.524;13.422;2023-08-06T08:36:13;20.30;99.90
5711;DHT22;61291;52.524;13.422;2023-08-06T08:38:39;20.60;99.90
5711;DHT22;61291;52.524;13.422;2023-08-06T08:41:05;20.50;99.90
5711;DHT22;61291;52.524;13.422;2023-08-06T08:43:31;20.70;99.90
5711;DHT22;61291;52.524;13.422;2023-08-06T08:45:57;20.90;99.90
5711;DHT22;61291;52.524;13.422;2023-08-06T08:48:24;21.20;99.90
5711;DHT22;61291;52.524;13.422;2023-08-06T08:50:50;21.60;99.90
5711;DHT22;61291;52.524;13.422;2023-08-06T08:53:17;21.80;99.90
5711;DHT22;61291;52.524;13.422;2023-08-06T08:55:43;22.10;99.90
5711;DHT22;61291;52.524;13.422;2023-08-06T08:58:10;22.30;99.90
5711;DHT22;61291;52.524;13.422;2023-08-06T09:00:36;22.40;99.90
5711;DHT22;61291;52.524;13.422;2023-08-06T09:03:05;22.40;99.90
5711;DHT22;61291;52.524;13.422;2023-08-06T09:05:32;22.10;99.90
5711;DHT22;61291;52.524;13.422;2023-08-06T09:08:02;21.70;99.90
5711;DHT22;61291;52.524;13.422;2023-08-06T09:10:28;21.70;99.90
5711;DHT22;61291;52.524;13.422;2023-08-06T09:12:56;22.00;99.90
5711;DHT22;61291;52.524;13.422;2023-08-06T09:15:24;22.30;99.90
5711;DHT22;61291;52.524;13.422;2023-08-06T09:17:51;22.50;99.90
5711;DHT22;61291;52.524;13.422;2023-08-06T09:20:17;22.60;99.90
5711;DHT22;61291;52.524;13.422;2023-08-06T09:22:43;22.50;99.90
5711;DHT22;61291;52.524;13.422;2023-08-06T09:25:09;22.40;99.90
5711;DHT22;61291;52.524;13.422;2023-08-06T09:27:38;22.50;99.90
5711;DHT22;61291;52.524;13.422;2023-08-06T09:30:05;22.60;99.90
5711;DHT22;61291;52.524;13.422;2023-08-06T09:32:48;22.60;99.90
5711;DHT22;61291;52.524;13.422;2023-08-06T09:35:17;22.70;99.90
5711;DHT22;61291;52.524;13.422;2023-08-06T09:37:43;22.60;99.90
5711;DHT22;61291;52.524;13.422;2023-08-06T09:40:30;22.50;99.90
5711;DHT22;61291;52.524;13.422;2023-08-06T09:42:56;22.50;99.90
5711;DHT22;61291;52.524;13.422;2023-08-06T09:45:23;22.60;99.90
5711;DHT22;61291;52.524;13.422;2023-08-06T09:47:56;22.70;99.90
5711;DHT22;61291;52.524;13.422;2023-08-06T09:50:22;22.80;99.90
5711;DHT22;61291;52.524;13.422;2023-08-06T09:52:48;22.90;99.90
5711;DHT22;61291;52.524;13.422;2023-08-06T09:55:15;22.90;99.90
5711;DHT22;61291;52.524;13.422;2023-08-06T09:57:41;22.90;99.90
5711;DHT22;61291;52.524;13.422;2023-08-06T10:00:08;23.00;99.90
5711;DHT22;61291;52.524;13.422;2023-08-06T10:02:37;22.90;99.90
5711;DHT22;61291;52.524;13.422;2023-08-06T10:05:03;22.80;99.90
5711;DHT22;61291;52.524;13.422;2023-08-06T10:07:29;22.50;99.90
5711;DHT22;61291;52.524;13.422;2023-08-06T10:09:55;22.10;99.90
5711;DHT22;61291;52.524;13.422;2023-08-06T10:12:22;21.70;99.90
5711;DHT22;61291;52.524;13.422;2023-08-06T10:14:48;21.80;99.90
5711;DHT22;61291;52.524;13.422;2023-08-06T10:17:14;21.70;99.90
5711;DHT22;61291;52.524;13.422;2023-08-06T10:19:40;21.90;99.90
5711;DHT22;61291;52.524;13.422;2023-08-06T10:22:15;22.30;99.90
5711;DHT22;61291;52.524;13.422;2023-08-06T10:24:54;22.70;99.90
5711;DHT22;61291;52.524;13.422;2023-08-06T10:27:32;22.80;99.90
5711;DHT22;61291;52.524;13.422;2023-08-06T10:32:56;22.50;99.90
5711;DHT22;61291;52.524;13.422;2023-08-06T10:38:10;22.80;99.90
5711;DHT22;61291;52.524;13.422;2023-08-06T10:40:39;23.00;99.90
5711;DHT22;61291;52.524;13.422;2023-08-06T10:43:05;23.30;99.90
5711;DHT22;61291;52.524;13.422;2023-08-06T10:45:35;23.70;99.90
5711;DHT22;61291;52.524;13.422;2023-08-06T10:48:00;23.80;99.90
5711;DHT22;61291;52.524;13.422;2023-08-06T10:50:26;23.80;99.90
5711;DHT22;61291;52.524;13.422;2023-08-06T10:52:52;23.90;99.90
5711;DHT22;61291;52.524;13.422;2023-08-06T10:55:28;23.60;99.90
5711;DHT22;61291;52.524;13.422;2023-08-06T10:57:55;23.30;99.90
5711;DHT22;61291;52.524;13.422;2023-08-06T11:00:22;23.20;99.90
5711;DHT22;61291;52.524;13.422;2023-08-06T11:02:49;23.20;99.90
5711;DHT22;61291;52.524;13.422;2023-08-06T11:05:16;23.30;99.90
5711;DHT22;61291;52.524;13.422;2023-08-06T11:07:42;23.20;99.90
5711;DHT22;61291;52.524;13.422;2023-08-06T11:10:10;23.30;99.90
5711;DHT22;61291;52.524;13.422;2023-08-06T11:12:36;23.40;99.90
5711;DHT22;61291;52.524;13.422;2023-08-06T11:15:02;23.60;99.90
5711;DHT22;61291;52.524;13.422;2023-08-06T11:17:31;23.70;99.90
5711;DHT22;61291;52.524;13.422;2023-08-06T11:20:06;23.70;99.90
5711;DHT22;61291;52.524;13.422;2023-08-06T11:22:32;23.50;99.90
5711;DHT22;61291;52.524;13.422;2023-08-06T11:24:58;23.50;99.90
5711;DHT22;61291;52.524;13.422;2023-08-06T11:27:26;23.60;99.90
5711;DHT22;61291;52.524;13.422;2023-08-06T11:29:53;23.70;99.90
5711;DHT22;61291;52.524;13.422;2023-08-06T11:32:19;23.60;99.90
5711;DHT22;61291;52.524;13.422;2023-08-06T11:34:44;23.30;99.90
5711;DHT22;61291;52.524;13.422;2023-08-06T11:37:10;23.20;99.90
5711;DHT22;61291;52.524;13.422;2023-08-06T11:39:37;22.90;99.90
5711;DHT22;61291;52.524;13.422;2023-08-06T11:42:04;23.20;99.90
5711;DHT22;61291;52.524;13.422;2023-08-06T11:44:31;23.00;99.90
5711;DHT22;61291;52.524;13.422;2023-08-06T11:47:00;23.20;99.90
5711;DHT22;61291;52.524;13.422;2023-08-06T11:49:45;23.20;99.90
5711;DHT22;61291;52.524;13.422;2023-08-06T11:52:19;23.20;99.90
5711;DHT22;61291;52.524;13.422;2023-08-06T11:54:46;23.00;99.90
5711;DHT22;61291;52.524;13.422;2023-08-06T11:57:12;22.90;99.90
5711;DHT22;61291;52.524;13.422;2023-08-06T11:59:38;23.00;99.90
5711;DHT22;61291;52.524;13.422;2023-08-06T12:02:05;23.00;99.90
5711;DHT22;61291;52.524;13.422;2023-08-06T12:04:57;23.20;99.90
5711;DHT22;61291;52.524;13.422;2023-08-06T12:07:28;23.50;99.90
5711;DHT22;61291;52.524;13.422;2023-08-06T12:09:53;23.50;99.90
5711;DHT22;61291;52.524;13.422;2023-08-06T12:12:18;23.60;99.90
5711;DHT22;61291;52.524;13.422;2023-08-06T12:14:44;23.70;99.90
5711;DHT22;61291;52.524;13.422;2023-08-06T12:17:09;23.70;99.90
5711;DHT22;61291;52.524;13.422;2023-08-06T12:19:35;23.40;99.90
5711;DHT22;61291;52.524;13.422;2023-08-06T12:22:01;23.60;99.90
5711;DHT22;61291;52.524;13.422;2023-08-06T12:24:26;23.20;99.90
5711;DHT22;61291;52.524;13.422;2023-08-06T12:26:52;23.20;99.90
5711;DHT22;61291;52.524;13.422;2023-08-06T12:29:17;23.40;99.90
5711;DHT22;61291;52.524;13.422;2023-08-06T12:31:43;23.30;99.90
5711;DHT22;61291;52.524;13.422;2023-08-06T12:34:08;23.10;99.90
5711;DHT22;61291;52.524;13.422;2023-08-06T12:36:33;23.00;99.90
5711;DHT22;61291;52.524;13.422;2023-08-06T12:38:59;23.10;99.90
5711;DHT22;61291;52.524;13.422;2023-08-06T12:41:24;23.10;99.90
5711;DHT22;61291;52.524;13.422;2023-08-06T12:43:50;23.10;99.90
5711;DHT22;61291;52.524;13.422;2023-08-06T12:46:15;23.00;99.90
5711;DHT22;61291;52.524;13.422;2023-08-06T12:48:41;22.80;99.90
5711;DHT22;61291;52.524;13.422;2023-08-06T12:51:06;22.60;99.90
5711;DHT22;61291;52.524;13.422;2023-08-06T12:53:32;22.60;99.90
5711;DHT22;61291;52.524;13.422;2023-08-06T12:55:57;22.50;99.90
5711;DHT22;61291;52.524;13.422;2023-08-06T12:58:22;22.40;99.90
5711;DHT22;61291;52.524;13.422;2023-08-06T13:00:48;22.60;99.90
5711;DHT22;61291;52.524;13.422;2023-08-06T13:03:13;22.50;99.90
5711;DHT22;61291;52.524;13.422;2023-08-06T13:05:39;22.40;99.90
5711;DHT22;61291;52.524;13.422;2023-08-06T13:08:04;22.20;99.90
5711;DHT22;61291;52.524;13.422;2023-08-06T13:10:30;22.00;99.90
5711;DHT22;61291;52.524;13.422;2023-08-06T13:12:56;21.70;99.90
5711;DHT22;61291;52.524;13.422;2023-08-06T13:15:22;21.50;99.90
5711;DHT22;61291;52.524;13.422;2023-08-06T13:17:47;21.40;99.90
5711;DHT22;61291;52.524;13.422;2023-08-06T13:20:13;21.40;99.90
5711;DHT22;61291;52.524;13.422;2023-08-06T13:22:38;21.50;99.90
5711;DHT22;61291;52.524;13.422;2023-08-06T13:25:04;21.60;99.90
5711;DHT22;61291;52.524;13.422;2023-08-06T13:27:29;21.60;99.90
5711;DHT22;61291;52.524;13.422;2023-08-06T13:29:55;21.60;99.90
5711;DHT22;61291;52.524;13.422;2023-08-06T13:32:20;21.60;99.90
5711;DHT22;61291;52.524;13.422;2023-08-06T13:34:46;21.50;99.90
5711;DHT22;61291;52.524;13.422;2023-08-06T13:37:12;21.60;99.90
5711;DHT22;61291;52.524;13.422;2023-08-06T13:39:37;21.70;99.90
5711;DHT22;61291;52.524;13.422;2023-08-06T13:42:02;21.60;99.90
5711;DHT22;61291;52.524;13.422;2023-08-06T13:44:28;21.40;99.90
5711;DHT22;61291;52.524;13.422;2023-08-06T13:46:54;21.40;99.90
5711;DHT22;61291;52.524;13.422;2023-08-06T13:49:19;21.50;99.90
5711;DHT22;61291;52.524;13.422;2023-08-06T13:51:45;21.50;99.90
5711;DHT22;61291;52.524;13.422;2023-08-06T13:54:10;21.40;99.90
5711;DHT22;61291;52.524;13.422;2023-08-06T13:56:36;21.40;99.90
5711;DHT22;61291;52.524;13.422;2023-08-06T13:59:03;21.50;99.90
5711;DHT22;61291;52.524;13.422;2023-08-06T14:01:28;21.50;99.90
5711;DHT22;61291;52.524;13.422;2023-08-06T14:03:54;21.40;99.90
5711;DHT22;61291;52.524;13.422;2023-08-06T14:06:19;21.20;99.90
5711;DHT22;61291;52.524;13.422;2023-08-06T14:08:45;21.20;99.90
5711;DHT22;61291;52.524;13.422;2023-08-06T14:11:11;21.20;99.90
5711;DHT22;61291;52.524;13.422;2023-08-06T14:13:36;21.10;99.90
5711;DHT22;61291;52.524;13.422;2023-08-06T14:16:02;20.80;99.90
5711;DHT22;61291;52.524;13.422;2023-08-06T14:18:27;20.90;99.90
5711;DHT22;61291;52.524;13.422;2023-08-06T14:20:53;20.90;99.90
5711;DHT22;61291;52.524;13.422;2023-08-06T14:23:18;20.90;99.90
5711;DHT22;61291;52.524;13.422;2023-08-06T14:25:44;20.80;99.90
5711;DHT22;61291;52.524;13.422;2023-08-06T14:28:09;20.70;99.90
5711;DHT22;61291;52.524;13.422;2023-08-06T14:30:35;20.50;99.90
5711;DHT22;61291;52.524;13.422;2023-08-06T14:33:01;20.40;99.90
5711;DHT22;61291;52.524;13.422;2023-08-06T14:35:27;20.10;99.90
5711;DHT22;61291;52.524;13.422;2023-08-06T14:37:52;20.00;99.90
5711;DHT22;61291;52.524;13.422;2023-08-06T14:40:18;19.90;99.90
5711;DHT22;61291;52.524;13.422;2023-08-06T14:42:43;19.60;99.90
5711;DHT22;61291;52.524;13.422;2023-08-06T14:45:09;19.50;99.90
5711;DHT22;61291;52.524;13.422;2023-08-06T14:47:35;19.40;99.90
5711;DHT22;61291;52.524;13.422;2023-08-06T14:50:00;19.30;99.90
5711;DHT22;61291;52.524;13.422;2023-08-06T14:52:26;19.20;99.90
5711;DHT22;61291;52.524;13.422;2023-08-06T14:54:51;19.20;99.90
5711;DHT22;61291;52.524;13.422;2023-08-06T14:57:21;19.20;99.90
5711;DHT22;61291;52.524;13.422;2023-08-06T14:59:52;19.20;99.90
5711;DHT22;61291;52.524;13.422;2023-08-06T15:02:18;19.20;99.90
5711;DHT22;61291;52.524;13.422;2023-08-06T15:04:43;19.20;99.90
5711;DHT22;61291;52.524;13.422;2023-08-06T15:07:09;19.30;99.90
5711;DHT22;61291;52.524;13.422;2023-08-06T15:09:35;19.50;99.90
5711;DHT22;61291;52.524;13.422;2023-08-06T15:12:00;19.50;99.90
5711;DHT22;61291;52.524;13.422;2023-08-06T15:14:25;19.40;99.90
5711;DHT22;61291;52.524;13.422;2023-08-06T15:16:51;19.50;99.90
5711;DHT22;61291;52.524;13.422;2023-08-06T15:19:17;19.60;99.90
5711;DHT22;61291;52.524;13.422;2023-08-06T15:21:42;19.70;99.90
5711;DHT22;61291;52.524;13.422;2023-08-06T15:24:08;19.80;99.90
5711;DHT22;61291;52.524;13.422;2023-08-06T15:26:34;19.70;99.90
5711;DHT22;61291;52.524;13.422;2023-08-06T15:29:00;19.80;99.90
5711;DHT22;61291;52.524;13.422;2023-08-06T15:31:36;19.70;99.90
5711;DHT22;61291;52.524;13.422;2023-08-06T15:34:02;19.80;99.90
5711;DHT22;61291;52.524;13.422;2023-08-06T15:36:28;19.70;99.90